Sincerity Ace — 3FFD7 — position and weather

sailwx.info

Track history (hours):
 
Tides and Currents Weather Stations Pressure Air Temp Water Temp Dewpoint Dewpoint Depression Visibility Wind Speed Wind Dir Waves Ship Positions

Sincerity Ace

Last reported at 2015-Aug-13 02:13 UTC. Time now 2015-Sep-03 23:29 UTC.
Position N 30°50' W 080°48'.
Warning: this ship's position is 21 days out of date.

Length 200 m; draft 8.9 m.

Type: Cargo ship. MMSI: 351690000.

Date/timePositionNaut miles runAvg speedWind from/ knotsBaromVisibWave heightAir tempDewpointWater temp
2015-Aug-13 02:13N 30°50' W 080°48'  
2015-Aug-10 16:31N 30°60' W 081°13'40314.2
2015-Aug-09 12:08N 35°15' W 075°02'16715.4
2015-Aug-09 01:17N 37°54' W 076°10'1115.0
2015-Aug-09 00:32N 38°05' W 076°13'1413.8
2015-Aug-08 23:31N 38°18' W 076°18'2914.1
2015-Aug-08 21:28N 38°46' W 076°26'1314.6
2015-Aug-08 20:34N 38°59' W 076°23'1111.4
2015-Aug-08 19:33N 39°10' W 076°26'6 6.0
2015-Aug-08 18:33N 39°14' W 076°32'0 0.0
2015-Aug-08 17:33N 39°14' W 076°32'0 0.0
2015-Aug-08 16:33N 39°14' W 076°32'0 0.0
2015-Aug-08 15:24N 39°14' W 076°32'0 0.0
2015-Aug-08 14:33N 39°14' W 076°32'0 0.0
2015-Aug-08 13:33N 39°14' W 076°32'0 0.0
2015-Aug-08 12:33N 39°14' W 076°32'0 0.0
2015-Aug-08 11:27N 39°14' W 076°32'0 0.0
2015-Aug-08 10:30N 39°14' W 076°32'0 0.0
2015-Aug-08 09:33N 39°14' W 076°32'0 0.0
2015-Aug-08 08:33N 39°14' W 076°32'0 0.0
2015-Aug-08 07:33N 39°14' W 076°32'0 0.0
2015-Aug-08 06:33N 39°14' W 076°32'0 0.0
2015-Aug-08 05:33N 39°14' W 076°32'0 0.0
2015-Aug-08 04:33N 39°14' W 076°32'0 0.0
2015-Aug-08 03:30N 39°14' W 076°32'0 0.0
2015-Aug-08 02:33N 39°14' W 076°32'0 0.0
2015-Aug-08 01:33N 39°14' W 076°32'0 0.0
2015-Aug-08 00:33N 39°14' W 076°32'0 0.0
2015-Aug-07 23:27N 39°14' W 076°32'1 1.5
2015-Aug-07 22:33N 39°13' W 076°32'1110.7
2015-Aug-07 21:33N 39°09' W 076°19'1111.4
2015-Aug-07 20:33N 39°19' W 076°13'1313.1
2015-Aug-07 19:34N 39°27' W 075°59'8 8.2
2015-Aug-07 18:33N 39°32' W 075°51'8 8.0
2015-Aug-07 17:33N 39°33' W 075°40'6 5.9
2015-Aug-07 16:34N 39°31' W 075°33'1413.9
2015-Aug-07 15:34N 39°19' W 075°24'1514.9
2015-Aug-07 14:33N 39°07' W 075°13'1514.7
2015-Aug-07 13:33N 38°53' W 075°05'9 9.3
2015-Aug-07 12:33N 38°48' W 074°55'1615.6
2015-Aug-07 11:33N 38°49' W 074°35'2118.0
2015-Aug-07 10:23N 38°49' W 074°08'36 6.1
2015-Aug-07 04:32N 39°16' W 073°38'1616.3
2015-Aug-07 03:33N 39°28' W 073°52'1717.1
2015-Aug-07 02:33N 39°45' W 073°52'1717.1
2015-Aug-07 01:33N 40°02' W 073°50'1716.9
2015-Aug-07 00:33N 40°19' W 073°49'1010.0
2015-Aug-06 23:34N 40°28' W 073°53'1313.0
2015-Aug-06 22:34N 40°39' W 074°04'2 1.5
2015-Aug-06 21:31N 40°40' W 074°04'0 0.0
2015-Aug-06 20:31N 40°40' W 074°04'0 0.0
2015-Aug-06 19:31N 40°40' W 074°04'0 0.0
2015-Aug-06 18:31N 40°40' W 074°04'0 0.0
2015-Aug-06 17:31N 40°40' W 074°04'0 0.0
2015-Aug-06 16:31N 40°40' W 074°04'0 0.0
2015-Aug-06 15:31N 40°40' W 074°04'0 0.0
2015-Aug-06 14:31N 40°40' W 074°04'0 0.0
2015-Aug-06 13:31N 40°40' W 074°04'0 0.0
2015-Aug-06 12:31N 40°40' W 074°04'0 0.0
2015-Aug-06 11:31N 40°40' W 074°04'0 0.0
2015-Aug-06 10:31N 40°40' W 074°04'0 0.0
2015-Aug-06 09:31N 40°40' W 074°04'0 0.0
2015-Aug-06 08:31N 40°40' W 074°04'0 0.0
2015-Aug-06 07:31N 40°40' W 074°04'0 0.0
2015-Aug-06 06:31N 40°40' W 074°04'0 0.0
2015-Aug-06 05:31N 40°40' W 074°04'0 0.0
2015-Aug-06 04:31N 40°40' W 074°04'0 0.0
2015-Aug-06 03:31N 40°40' W 074°04'0 0.0
2015-Aug-06 02:31N 40°40' W 074°04'0 0.0
2015-Aug-06 01:31N 40°40' W 074°04'0 0.0
2015-Aug-06 00:31N 40°40' W 074°04'0 0.0
2015-Aug-05 23:31N 40°40' W 074°04'2 2.2
2015-Aug-05 22:33N 40°38' W 074°03'10 9.5
2015-Aug-05 21:33N 40°30' W 073°56'10 9.9
2015-Aug-05 20:32N 40°25' W 073°45'2914.7
2015-Aug-05 18:33N 40°08' W 073°14'1716.8
2015-Aug-05 17:33N 39°56' W 072°59'1717.0
2015-Aug-05 16:33N 39°44' W 072°43'1717.0
2015-Aug-05 15:33N 39°32' W 072°27'1110.7
2015-Aug-05 14:34N 39°24' W 072°18'1919.1
2015-Aug-05 13:33N 39°11' W 072°00'1615.6
2015-Aug-05 12:33N 38°59' W 071°46'1716.7
2015-Aug-05 11:32N 38°47' W 071°31'  
Track history (hours):
 
Tides and Currents Weather Stations Pressure Air Temp Water Temp Dewpoint Dewpoint Depression Visibility Wind Speed Wind Dir Waves Ship Positions

Sincerity Ace

Last reported at 2015-Aug-13 02:13 UTC. Time now 2015-Sep-03 23:29 UTC.
Position N 30°50' W 080°48'.
Warning: this ship's position is 21 days out of date.

Length 200 m; draft 8.9 m.

Type: Cargo ship. MMSI: 351690000.

Date/timePositionNaut miles runAvg speedWind from/ knotsBaromVisibWave heightAir tempDewpointWater temp
2015-Aug-13 02:13N 30°50' W 080°48'  
2015-Aug-10 16:31N 30°60' W 081°13'40314.2
2015-Aug-09 12:08N 35°15' W 075°02'16715.4
2015-Aug-09 01:17N 37°54' W 076°10'1115.0
2015-Aug-09 00:32N 38°05' W 076°13'1413.8
2015-Aug-08 23:31N 38°18' W 076°18'2914.1
2015-Aug-08 21:28N 38°46' W 076°26'1314.6
2015-Aug-08 20:34N 38°59' W 076°23'1111.4
2015-Aug-08 19:33N 39°10' W 076°26'6 6.0
2015-Aug-08 18:33N 39°14' W 076°32'0 0.0
2015-Aug-08 17:33N 39°14' W 076°32'0 0.0
2015-Aug-08 16:33N 39°14' W 076°32'0 0.0
2015-Aug-08 15:24N 39°14' W 076°32'0 0.0
2015-Aug-08 14:33N 39°14' W 076°32'0 0.0
2015-Aug-08 13:33N 39°14' W 076°32'0 0.0
2015-Aug-08 12:33N 39°14' W 076°32'0 0.0
2015-Aug-08 11:27N 39°14' W 076°32'0 0.0
2015-Aug-08 10:30N 39°14' W 076°32'0 0.0
2015-Aug-08 09:33N 39°14' W 076°32'0 0.0
2015-Aug-08 08:33N 39°14' W 076°32'0 0.0
2015-Aug-08 07:33N 39°14' W 076°32'0 0.0
2015-Aug-08 06:33N 39°14' W 076°32'0 0.0
2015-Aug-08 05:33N 39°14' W 076°32'0 0.0
2015-Aug-08 04:33N 39°14' W 076°32'0 0.0
2015-Aug-08 03:30N 39°14' W 076°32'0 0.0
2015-Aug-08 02:33N 39°14' W 076°32'0 0.0
2015-Aug-08 01:33N 39°14' W 076°32'0 0.0
2015-Aug-08 00:33N 39°14' W 076°32'0 0.0
2015-Aug-07 23:27N 39°14' W 076°32'1 1.5
2015-Aug-07 22:33N 39°13' W 076°32'1110.7
2015-Aug-07 21:33N 39°09' W 076°19'1111.4
2015-Aug-07 20:33N 39°19' W 076°13'1313.1
2015-Aug-07 19:34N 39°27' W 075°59'8 8.2
2015-Aug-07 18:33N 39°32' W 075°51'8 8.0
2015-Aug-07 17:33N 39°33' W 075°40'6 5.9
2015-Aug-07 16:34N 39°31' W 075°33'1413.9
2015-Aug-07 15:34N 39°19' W 075°24'1514.9
2015-Aug-07 14:33N 39°07' W 075°13'1514.7
2015-Aug-07 13:33N 38°53' W 075°05'9 9.3
2015-Aug-07 12:33N 38°48' W 074°55'1615.6
2015-Aug-07 11:33N 38°49' W 074°35'2118.0
2015-Aug-07 10:23N 38°49' W 074°08'36 6.1
2015-Aug-07 04:32N 39°16' W 073°38'1616.3
2015-Aug-07 03:33N 39°28' W 073°52'1717.1
2015-Aug-07 02:33N 39°45' W 073°52'1717.1
2015-Aug-07 01:33N 40°02' W 073°50'1716.9
2015-Aug-07 00:33N 40°19' W 073°49'1010.0
2015-Aug-06 23:34N 40°28' W 073°53'1313.0
2015-Aug-06 22:34N 40°39' W 074°04'2 1.5
2015-Aug-06 21:31N 40°40' W 074°04'0 0.0
2015-Aug-06 20:31N 40°40' W 074°04'0 0.0
2015-Aug-06 19:31N 40°40' W 074°04'0 0.0
2015-Aug-06 18:31N 40°40' W 074°04'0 0.0
2015-Aug-06 17:31N 40°40' W 074°04'0 0.0
2015-Aug-06 16:31N 40°40' W 074°04'0 0.0
2015-Aug-06 15:31N 40°40' W 074°04'0 0.0
2015-Aug-06 14:31N 40°40' W 074°04'0 0.0
2015-Aug-06 13:31N 40°40' W 074°04'0 0.0
2015-Aug-06 12:31N 40°40' W 074°04'0 0.0
2015-Aug-06 11:31N 40°40' W 074°04'0 0.0
2015-Aug-06 10:31N 40°40' W 074°04'0 0.0
2015-Aug-06 09:31N 40°40' W 074°04'0 0.0
2015-Aug-06 08:31N 40°40' W 074°04'0 0.0
2015-Aug-06 07:31N 40°40' W 074°04'0 0.0
2015-Aug-06 06:31N 40°40' W 074°04'0 0.0
2015-Aug-06 05:31N 40°40' W 074°04'0 0.0
2015-Aug-06 04:31N 40°40' W 074°04'0 0.0
2015-Aug-06 03:31N 40°40' W 074°04'0 0.0
2015-Aug-06 02:31N 40°40' W 074°04'0 0.0
2015-Aug-06 01:31N 40°40' W 074°04'0 0.0
2015-Aug-06 00:31N 40°40' W 074°04'0 0.0
2015-Aug-05 23:31N 40°40' W 074°04'2 2.2
2015-Aug-05 22:33N 40°38' W 074°03'10 9.5
2015-Aug-05 21:33N 40°30' W 073°56'10 9.9
2015-Aug-05 20:32N 40°25' W 073°45'2914.7
2015-Aug-05 18:33N 40°08' W 073°14'1716.8
2015-Aug-05 17:33N 39°56' W 072°59'1717.0
2015-Aug-05 16:33N 39°44' W 072°43'1717.0
2015-Aug-05 15:33N 39°32' W 072°27'1110.7
2015-Aug-05 14:34N 39°24' W 072°18'1919.1
2015-Aug-05 13:33N 39°11' W 072°00'1615.6
2015-Aug-05 12:33N 38°59' W 071°46'1716.7
2015-Aug-05 11:32N 38°47' W 071°31'  

Dump ship's entire track history